sensor_id;sensor_type;location;lat;lon;timestamp;pressure;altitude;pressure_sealevel;temperature;humidity
28648;BME280;17137;51.494;-0.262;2023-05-19T00:00:31;50165.80;;;-145.72;51.61
28648;BME280;17137;51.494;-0.262;2023-05-19T00:01:02;50164.20;;;-145.72;51.51
28648;BME280;17137;51.494;-0.262;2023-05-19T00:01:33;50175.42;;;-145.72;51.34
28648;BME280;17137;51.494;-0.262;2023-05-19T00:02:04;50176.28;;;-145.72;51.46
28648;BME280;17137;51.494;-0.262;2023-05-19T00:02:35;50176.16;;;-145.72;51.42
28648;BME280;17137;51.494;-0.262;2023-05-19T00:03:05;50174.55;;;-145.72;51.42
28648;BME280;17137;51.494;-0.262;2023-05-19T00:03:36;50187.00;;;-145.72;51.42
28648;BME280;17137;51.494;-0.262;2023-05-19T00:04:07;50175.05;;;-145.72;51.34
28648;BME280;17137;51.494;-0.262;2023-05-19T00:04:38;50178.25;;;-145.72;52.00
28648;BME280;17137;51.494;-0.262;2023-05-19T00:05:09;50181.33;;;-145.72;51.93
28648;BME280;17137;51.494;-0.262;2023-05-19T00:05:41;50183.55;;;-145.72;52.27
28648;BME280;17137;51.494;-0.262;2023-05-19T00:06:12;50187.13;;;-145.72;52.14
28648;BME280;17137;51.494;-0.262;2023-05-19T00:06:43;50175.66;;;-145.72;51.94
28648;BME280;17137;51.494;-0.262;2023-05-19T00:07:18;50170.98;;;-145.72;51.77
28648;BME280;17137;51.494;-0.262;2023-05-19T00:07:56;50182.57;;;-145.72;51.66
28648;BME280;17137;51.494;-0.262;2023-05-19T00:08:30;50161.73;;;-145.72;51.62
28648;BME280;17137;51.494;-0.262;2023-05-19T00:09:07;50176.03;;;-145.72;51.44
28648;BME280;17137;51.494;-0.262;2023-05-19T00:09:38;50176.03;;;-145.72;51.52
28648;BME280;17137;51.494;-0.262;2023-05-19T00:10:10;50160.50;;;-145.72;51.44
28648;BME280;17137;51.494;-0.262;2023-05-19T00:10:41;50162.23;;;-145.72;51.24
28648;BME280;17137;51.494;-0.262;2023-05-19T00:11:12;50159.39;;;-145.72;50.90
28648;BME280;17137;51.494;-0.262;2023-05-19T00:11:43;50160.13;;;-145.72;50.47
28648;BME280;17137;51.494;-0.262;2023-05-19T00:12:15;50161.37;;;-145.72;50.50
28648;BME280;17137;51.494;-0.262;2023-05-19T00:12:45;50164.57;;;-145.72;50.16
28648;BME280;17137;51.494;-0.262;2023-05-19T00:13:16;50162.84;;;-145.72;49.99
28648;BME280;17137;51.494;-0.262;2023-05-19T00:13:47;50156.56;;;-145.72;49.85
28648;BME280;17137;51.494;-0.262;2023-05-19T00:14:18;50156.19;;;-145.72;49.81
28648;BME280;17137;51.494;-0.262;2023-05-19T00:14:49;50167.04;;;-145.72;49.79
28648;BME280;17137;51.494;-0.262;2023-05-19T00:15:20;50150.39;;;-145.72;49.60
28648;BME280;17137;51.494;-0.262;2023-05-19T00:15:51;50150.64;;;-145.72;49.28
28648;BME280;17137;51.494;-0.262;2023-05-19T00:16:22;50149.29;;;-145.72;49.17
28648;BME280;17137;51.494;-0.262;2023-05-19T00:16:53;50149.16;;;-145.72;49.26
28648;BME280;17137;51.494;-0.262;2023-05-19T00:17:24;50160.38;;;-145.72;49.32
28648;BME280;17137;51.494;-0.262;2023-05-19T00:17:54;50162.72;;;-145.72;49.55
28648;BME280;17137;51.494;-0.262;2023-05-19T00:18:25;50149.29;;;-145.72;49.34
28648;BME280;17137;51.494;-0.262;2023-05-19T00:18:56;50160.63;;;-145.72;49.59
28648;BME280;17137;51.494;-0.262;2023-05-19T00:19:27;50161.98;;;-145.72;49.55
28648;BME280;17137;51.494;-0.262;2023-05-19T00:20:03;50156.43;;;-145.72;49.29
28648;BME280;17137;51.494;-0.262;2023-05-19T00:20:33;50151.63;;;-145.72;49.07
28648;BME280;17137;51.494;-0.262;2023-05-19T00:21:04;50154.71;;;-145.72;49.31
28648;BME280;17137;51.494;-0.262;2023-05-19T00:21:34;50158.78;;;-145.72;49.39
28648;BME280;17137;51.494;-0.262;2023-05-19T00:22:04;50165.19;;;-145.72;49.22
28648;BME280;17137;51.494;-0.262;2023-05-19T00:22:34;50156.06;;;-145.72;48.95
28648;BME280;17137;51.494;-0.262;2023-05-19T00:23:05;50158.90;;;-145.72;48.94
28648;BME280;17137;51.494;-0.262;2023-05-19T00:23:35;50177.39;;;-145.72;49.57
28648;BME280;17137;51.494;-0.262;2023-05-19T00:24:06;50181.09;;;-145.72;49.80
28648;BME280;17137;51.494;-0.262;2023-05-19T00:24:36;50160.38;;;-145.72;49.78
28648;BME280;17137;51.494;-0.262;2023-05-19T00:25:07;50161.49;;;-145.72;49.71
28648;BME280;17137;51.494;-0.262;2023-05-19T00:25:37;50171.10;;;-145.72;49.44
28648;BME280;17137;51.494;-0.262;2023-05-19T00:26:08;50154.46;;;-145.72;48.98
28648;BME280;17137;51.494;-0.262;2023-05-19T00:26:38;50157.54;;;-145.72;48.77
28648;BME280;17137;51.494;-0.262;2023-05-19T00:27:08;50156.80;;;-145.72;48.62
28648;BME280;17137;51.494;-0.262;2023-05-19T00:27:38;50158.41;;;-145.72;48.43
28648;BME280;17137;51.494;-0.262;2023-05-19T00:28:09;50156.80;;;-145.72;48.36
28648;BME280;17137;51.494;-0.262;2023-05-19T00:28:39;50155.57;;;-145.72;48.55
28648;BME280;17137;51.494;-0.262;2023-05-19T00:29:09;50156.80;;;-145.72;48.67
28648;BME280;17137;51.494;-0.262;2023-05-19T00:29:40;50146.08;;;-145.72;48.68
28648;BME280;17137;51.494;-0.262;2023-05-19T00:30:10;50169.62;;;-145.72;48.86
28648;BME280;17137;51.494;-0.262;2023-05-19T00:30:41;50164.82;;;-145.72;49.29
28648;BME280;17137;51.494;-0.262;2023-05-19T00:31:11;50167.28;;;-145.72;49.26
28648;BME280;17137;51.494;-0.262;2023-05-19T00:31:41;50161.73;;;-145.72;49.31
28648;BME280;17137;51.494;-0.262;2023-05-19T00:32:12;50173.45;;;-145.72;49.20
28648;BME280;17137;51.494;-0.262;2023-05-19T00:32:42;50166.54;;;-145.72;49.22
28648;BME280;17137;51.494;-0.262;2023-05-19T00:33:12;50170.24;;;-145.72;49.13
28648;BME280;17137;51.494;-0.262;2023-05-19T00:33:42;50169.62;;;-145.72;49.20
28648;BME280;17137;51.494;-0.262;2023-05-19T00:34:13;50176.65;;;-145.72;49.53
28648;BME280;17137;51.494;-0.262;2023-05-19T00:34:43;50166.30;;;-145.72;49.84
28648;BME280;17137;51.494;-0.262;2023-05-19T00:35:13;50172.58;;;-145.72;49.76
28648;BME280;17137;51.494;-0.262;2023-05-19T00:35:44;50171.23;;;-145.72;49.64
28648;BME280;17137;51.494;-0.262;2023-05-19T00:36:14;50176.90;;;-145.72;49.74
28648;BME280;17137;51.494;-0.262;2023-05-19T00:36:45;50178.01;;;-145.72;49.61
28648;BME280;17137;51.494;-0.262;2023-05-19T00:37:16;50168.02;;;-145.72;49.55
28648;BME280;17137;51.494;-0.262;2023-05-19T00:37:46;50157.79;;;-145.72;49.55
28648;BME280;17137;51.494;-0.262;2023-05-19T00:38:16;50177.39;;;-145.72;49.88
28648;BME280;17137;51.494;-0.262;2023-05-19T00:38:47;50174.18;;;-145.72;49.98
28648;BME280;17137;51.494;-0.262;2023-05-19T00:39:17;50171.72;;;-145.72;49.99
28648;BME280;17137;51.494;-0.262;2023-05-19T00:39:47;50160.63;;;-145.72;49.98
28648;BME280;17137;51.494;-0.262;2023-05-19T00:40:18;50166.54;;;-145.72;49.77
28648;BME280;17137;51.494;-0.262;2023-05-19T00:40:48;50164.82;;;-145.72;49.45
28648;BME280;17137;51.494;-0.262;2023-05-19T00:41:19;50169.13;;;-145.72;49.02
28648;BME280;17137;51.494;-0.262;2023-05-19T00:41:49;50165.06;;;-145.72;48.79
28648;BME280;17137;51.494;-0.262;2023-05-19T00:42:20;50168.76;;;-145.72;48.72
28648;BME280;17137;51.494;-0.262;2023-05-19T00:42:50;50164.45;;;-145.72;48.72
28648;BME280;17137;51.494;-0.262;2023-05-19T00:43:20;50169.50;;;-145.72;48.94
28648;BME280;17137;51.494;-0.262;2023-05-19T00:43:51;50166.42;;;-145.72;48.95
28648;BME280;17137;51.494;-0.262;2023-05-19T00:44:21;50165.43;;;-145.72;48.87
28648;BME280;17137;51.494;-0.262;2023-05-19T00:44:52;50167.28;;;-145.72;48.75
28648;BME280;17137;51.494;-0.262;2023-05-19T00:45:23;50175.79;;;-145.72;49.12
28648;BME280;17137;51.494;-0.262;2023-05-19T00:45:54;50176.40;;;-145.72;49.57
28648;BME280;17137;51.494;-0.262;2023-05-19T00:46:24;50170.24;;;-145.72;49.52
28648;BME280;17137;51.494;-0.262;2023-05-19T00:46:55;50186.39;;;-145.72;49.58
28648;BME280;17137;51.494;-0.262;2023-05-19T00:47:25;50171.10;;;-145.72;49.46
28648;BME280;17137;51.494;-0.262;2023-05-19T00:47:55;50182.44;;;-145.72;49.38
28648;BME280;17137;51.494;-0.262;2023-05-19T00:48:25;50170.98;;;-145.72;49.50
28648;BME280;17137;51.494;-0.262;2023-05-19T00:48:56;50178.01;;;-145.72;49.49
28648;BME280;17137;51.494;-0.262;2023-05-19T00:49:26;50199.58;;;-145.72;49.48
28648;BME280;17137;51.494;-0.262;2023-05-19T00:49:56;50179.73;;;-145.72;49.63
28648;BME280;17137;51.494;-0.262;2023-05-19T00:50:27;50172.83;;;-145.72;49.67
28648;BME280;17137;51.494;-0.262;2023-05-19T00:50:59;50169.13;;;-145.72;49.23
28648;BME280;17137;51.494;-0.262;2023-05-19T00:51:30;50181.95;;;-145.72;49.53
28648;BME280;17137;51.494;-0.262;2023-05-19T00:52:06;50188.24;;;-145.72;49.47
28648;BME280;17137;51.494;-0.262;2023-05-19T00:52:36;50191.44;;;-145.72;49.30
28648;BME280;17137;51.494;-0.262;2023-05-19T00:53:07;50183.43;;;-145.72;49.24
28648;BME280;17137;51.494;-0.262;2023-05-19T00:53:37;50178.01;;;-145.72;49.33
28648;BME280;17137;51.494;-0.262;2023-05-19T00:54:08;50180.47;;;-145.72;49.57
28648;BME280;17137;51.494;-0.262;2023-05-19T00:54:39;50188.85;;;-145.72;49.79
28648;BME280;17137;51.494;-0.262;2023-05-19T00:55:09;50179.61;;;-145.72;49.82
28648;BME280;17137;51.494;-0.262;2023-05-19T00:55:41;50191.81;;;-145.72;49.69
28648;BME280;17137;51.494;-0.262;2023-05-19T00:56:11;50178.87;;;-145.72;49.61
28648;BME280;17137;51.494;-0.262;2023-05-19T00:56:42;50183.31;;;-145.72;49.55
28648;BME280;17137;51.494;-0.262;2023-05-19T00:57:13;50176.16;;;-145.72;49.57
28648;BME280;17137;51.494;-0.262;2023-05-19T00:57:44;50173.57;;;-145.72;49.66
28648;BME280;17137;51.494;-0.262;2023-05-19T00:58:16;50182.32;;;-145.72;49.68
28648;BME280;17137;51.494;-0.262;2023-05-19T00:58:50;50180.96;;;-145.72;49.79
28648;BME280;17137;51.494;-0.262;2023-05-19T00:59:20;50185.77;;;-145.72;49.86
28648;BME280;17137;51.494;-0.262;2023-05-19T00:59:50;50179.85;;;-145.72;49.94
28648;BME280;17137;51.494;-0.262;2023-05-19T01:00:21;50172.58;;;-145.72;49.91
28648;BME280;17137;51.494;-0.262;2023-05-19T01:00:52;50180.35;;;-145.72;49.92
28648;BME280;17137;51.494;-0.262;2023-05-19T01:01:22;50178.13;;;-145.72;49.89
28648;BME280;17137;51.494;-0.262;2023-05-19T01:01:53;50183.31;;;-145.72;49.96
28648;BME280;17137;51.494;-0.262;2023-05-19T01:02:23;50199.95;;;-145.72;50.73
28648;BME280;17137;51.494;-0.262;2023-05-19T01:02:53;50192.18;;;-145.72;51.04
28648;BME280;17137;51.494;-0.262;2023-05-19T01:03:23;50183.43;;;-145.72;50.92
28648;BME280;17137;51.494;-0.262;2023-05-19T01:03:54;50181.58;;;-145.72;50.80
28648;BME280;17137;51.494;-0.262;2023-05-19T01:04:24;50183.80;;;-145.72;50.75
28648;BME280;17137;51.494;-0.262;2023-05-19T01:04:55;50179.12;;;-145.72;50.68
28648;BME280;17137;51.494;-0.262;2023-05-19T01:05:55;50195.88;;;-145.72;51.01
28648;BME280;17137;51.494;-0.262;2023-05-19T01:06:25;50186.88;;;-145.72;50.93
28648;BME280;17137;51.494;-0.262;2023-05-19T01:06:56;50188.24;;;-145.72;51.03
28648;BME280;17137;51.494;-0.262;2023-05-19T01:07:27;50178.13;;;-145.72;50.98
28648;BME280;17137;51.494;-0.262;2023-05-19T01:07:57;50181.70;;;-145.72;50.61
28648;BME280;17137;51.494;-0.262;2023-05-19T01:08:28;50180.22;;;-145.72;50.57
28648;BME280;17137;51.494;-0.262;2023-05-19T01:08:58;50180.96;;;-145.72;50.61
28648;BME280;17137;51.494;-0.262;2023-05-19T01:09:28;50179.85;;;-145.72;50.78
28648;BME280;17137;51.494;-0.262;2023-05-19T01:09:59;50176.03;;;-145.72;50.64
28648;BME280;17137;51.494;-0.262;2023-05-19T01:10:29;50191.20;;;-145.72;50.60
28648;BME280;17137;51.494;-0.262;2023-05-19T01:10:59;50181.33;;;-145.72;50.54
28648;BME280;17137;51.494;-0.262;2023-05-19T01:11:30;50178.75;;;-145.72;50.45
28648;BME280;17137;51.494;-0.262;2023-05-19T01:12:01;50173.45;;;-145.72;50.51
28648;BME280;17137;51.494;-0.262;2023-05-19T01:12:31;50192.67;;;-145.72;50.48
28648;BME280;17137;51.494;-0.262;2023-05-19T01:13:02;50170.98;;;-145.72;50.24
28648;BME280;17137;51.494;-0.262;2023-05-19T01:13:34;50175.17;;;-145.72;50.16
28648;BME280;17137;51.494;-0.262;2023-05-19T01:14:05;50171.23;;;-145.72;50.28
28648;BME280;17137;51.494;-0.262;2023-05-19T01:14:35;50174.31;;;-145.72;50.29
28648;BME280;17137;51.494;-0.262;2023-05-19T01:15:06;50174.18;;;-145.72;50.30
28648;BME280;17137;51.494;-0.262;2023-05-19T01:15:43;50170.98;;;-145.72;50.71
28648;BME280;17137;51.494;-0.262;2023-05-19T01:16:24;50193.17;;;-145.72;51.50
28648;BME280;17137;51.494;-0.262;2023-05-19T01:17:00;50181.21;;;-145.72;51.31
28648;BME280;17137;51.494;-0.262;2023-05-19T01:17:38;50184.17;;;-145.72;51.37
28648;BME280;17137;51.494;-0.262;2023-05-19T01:18:14;50177.27;;;-145.72;51.11
28648;BME280;17137;51.494;-0.262;2023-05-19T01:18:51;50163.09;;;-145.72;50.72
28648;BME280;17137;51.494;-0.262;2023-05-19T01:19:35;50170.98;;;-145.72;50.53
28648;BME280;17137;51.494;-0.262;2023-05-19T01:20:18;50184.29;;;-145.72;50.92
28648;BME280;17137;51.494;-0.262;2023-05-19T01:20:53;50173.57;;;-145.72;51.58
28648;BME280;17137;51.494;-0.262;2023-05-19T01:22:51;50188.48;;;-145.72;51.68
28648;BME280;17137;51.494;-0.262;2023-05-19T01:23:32;50174.68;;;-145.72;51.32
28648;BME280;17137;51.494;-0.262;2023-05-19T01:24:19;50179.61;;;-145.72;51.20
28648;BME280;17137;51.494;-0.262;2023-05-19T01:25:07;50173.08;;;-145.72;51.36
28648;BME280;17137;51.494;-0.262;2023-05-19T01:26:44;50184.42;;;-145.72;51.46
28648;BME280;17137;51.494;-0.262;2023-05-19T01:27:34;50180.72;;;-145.72;51.64
28648;BME280;17137;51.494;-0.262;2023-05-19T01:28:58;50173.45;;;-145.72;51.64
28648;BME280;17137;51.494;-0.262;2023-05-19T01:29:41;50171.23;;;-145.72;51.61
28648;BME280;17137;51.494;-0.262;2023-05-19T01:30:23;50170.24;;;-145.72;51.60
28648;BME280;17137;51.494;-0.262;2023-05-19T01:30:55;50187.99;;;-145.72;52.80
28648;BME280;17137;51.494;-0.262;2023-05-19T01:31:28;50181.95;;;-145.72;52.79
28648;BME280;17137;51.494;-0.262;2023-05-19T01:31:59;50172.95;;;-145.72;52.69
28648;BME280;17137;51.494;-0.262;2023-05-19T01:32:30;50190.70;;;-145.72;53.11
28648;BME280;17137;51.494;-0.262;2023-05-19T01:33:05;50178.38;;;-145.72;52.82
28648;BME280;17137;51.494;-0.262;2023-05-19T01:33:37;50181.46;;;-145.72;52.61
28648;BME280;17137;51.494;-0.262;2023-05-19T01:34:10;50172.34;;;-145.72;52.98
28648;BME280;17137;51.494;-0.262;2023-05-19T01:34:43;50183.68;;;-145.72;52.82
28648;BME280;17137;51.494;-0.262;2023-05-19T01:35:16;50178.87;;;-145.72;52.87
28648;BME280;17137;51.494;-0.262;2023-05-19T01:35:48;50184.29;;;-145.72;53.46
28648;BME280;17137;51.494;-0.262;2023-05-19T01:36:21;50197.73;;;-145.72;54.06
28648;BME280;17137;51.494;-0.262;2023-05-19T01:36:54;50195.76;;;-145.72;54.14
28648;BME280;17137;51.494;-0.262;2023-05-19T01:37:25;50193.41;;;-145.72;54.26
28648;BME280;17137;51.494;-0.262;2023-05-19T01:37:58;50182.20;;;-145.72;54.07
28648;BME280;17137;51.494;-0.262;2023-05-19T01:38:29;50201.18;;;-145.72;54.29
28648;BME280;17137;51.494;-0.262;2023-05-19T01:39:01;50204.75;;;-145.72;54.61
28648;BME280;17137;51.494;-0.262;2023-05-19T01:39:32;50205.86;;;-145.72;54.77
28648;BME280;17137;51.494;-0.262;2023-05-19T01:40:05;50194.28;;;-145.72;54.75
28648;BME280;17137;51.494;-0.262;2023-05-19T01:40:37;50206.36;;;-145.72;54.90
28648;BME280;17137;51.494;-0.262;2023-05-19T01:41:08;50199.95;;;-145.72;54.81
28648;BME280;17137;51.494;-0.262;2023-05-19T01:41:41;50193.04;;;-145.72;54.67
28648;BME280;17137;51.494;-0.262;2023-05-19T01:42:13;50196.37;;;-145.72;54.43
28648;BME280;17137;51.494;-0.262;2023-05-19T01:42:45;50199.45;;;-145.72;54.35
28648;BME280;17137;51.494;-0.262;2023-05-19T01:43:19;50181.70;;;-145.72;54.37
28648;BME280;17137;51.494;-0.262;2023-05-19T01:43:50;50197.97;;;-145.72;54.38
28648;BME280;17137;51.494;-0.262;2023-05-19T01:44:21;50182.69;;;-145.72;54.42
28648;BME280;17137;51.494;-0.262;2023-05-19T01:44:53;50187.00;;;-145.72;54.51
28648;BME280;17137;51.494;-0.262;2023-05-19T01:45:26;50184.42;;;-145.72;54.71
28648;BME280;17137;51.494;-0.262;2023-05-19T01:45:57;50202.66;;;-145.72;54.65
28648;BME280;17137;51.494;-0.262;2023-05-19T01:46:27;50204.88;;;-145.72;54.85
28648;BME280;17137;51.494;-0.262;2023-05-19T01:46:58;50194.52;;;-145.72;54.83
28648;BME280;17137;51.494;-0.262;2023-05-19T01:47:29;50195.14;;;-145.72;54.78
28648;BME280;17137;51.494;-0.262;2023-05-19T01:48:01;50189.59;;;-145.72;54.48
28648;BME280;17137;51.494;-0.262;2023-05-19T01:48:32;50193.54;;;-145.72;54.62
28648;BME280;17137;51.494;-0.262;2023-05-19T01:49:03;50188.61;;;-145.72;54.57
28648;BME280;17137;51.494;-0.262;2023-05-19T01:49:33;50189.96;;;-145.72;54.65
28648;BME280;17137;51.494;-0.262;2023-05-19T01:50:04;50208.70;;;-145.72;55.28
28648;BME280;17137;51.494;-0.262;2023-05-19T01:50:35;50188.11;;;-145.72;55.03
28648;BME280;17137;51.494;-0.262;2023-05-19T01:51:06;50196.87;;;-145.72;54.60
28648;BME280;17137;51.494;-0.262;2023-05-19T01:51:36;50196.50;;;-145.72;54.32
28648;BME280;17137;51.494;-0.262;2023-05-19T01:52:11;50185.89;;;-145.72;54.31
28648;BME280;17137;51.494;-0.262;2023-05-19T01:52:42;50185.65;;;-145.72;54.35
28648;BME280;17137;51.494;-0.262;2023-05-19T01:53:12;50195.76;;;-145.72;54.25
28648;BME280;17137;51.494;-0.262;2023-05-19T01:53:43;50184.29;;;-145.72;54.23
28648;BME280;17137;51.494;-0.262;2023-05-19T01:54:13;50178.13;;;-145.72;54.47
28648;BME280;17137;51.494;-0.262;2023-05-19T01:54:43;50193.66;;;-145.72;54.91
28648;BME280;17137;51.494;-0.262;2023-05-19T01:55:14;50193.91;;;-145.72;54.75
28648;BME280;17137;51.494;-0.262;2023-05-19T01:55:46;50198.84;;;-145.72;54.91
28648;BME280;17137;51.494;-0.262;2023-05-19T01:56:31;50190.83;;;-145.72;54.75
28648;BME280;17137;51.494;-0.262;2023-05-19T01:57:11;50191.44;;;-145.72;55.25
28648;BME280;17137;51.494;-0.262;2023-05-19T01:57:52;50187.87;;;-145.72;55.07
28648;BME280;17137;51.494;-0.262;2023-05-19T01:58:30;50196.13;;;-145.72;55.21
28648;BME280;17137;51.494;-0.262;2023-05-19T01:59:18;50186.26;;;-145.72;54.93
28648;BME280;17137;51.494;-0.262;2023-05-19T01:59:58;50182.44;;;-145.72;54.75
28648;BME280;17137;51.494;-0.262;2023-05-19T02:00:45;50192.92;;;-145.72;54.92
28648;BME280;17137;51.494;-0.262;2023-05-19T02:01:27;50177.88;;;-145.72;55.35
28648;BME280;17137;51.494;-0.262;2023-05-19T02:02:02;50196.00;;;-145.72;55.11
28648;BME280;17137;51.494;-0.262;2023-05-19T02:02:46;50182.94;;;-145.72;54.97
28648;BME280;17137;51.494;-0.262;2023-05-19T02:03:31;50189.47;;;-145.72;55.05
28648;BME280;17137;51.494;-0.262;2023-05-19T02:04:18;50181.95;;;-145.72;54.95
28648;BME280;17137;51.494;-0.262;2023-05-19T02:04:58;50178.38;;;-145.72;54.81
28648;BME280;17137;51.494;-0.262;2023-05-19T02:05:39;50176.90;;;-145.72;54.61
28648;BME280;17137;51.494;-0.262;2023-05-19T02:06:25;50184.05;;;-145.72;54.50
28648;BME280;17137;51.494;-0.262;2023-05-19T02:07:02;50184.91;;;-145.72;54.72
28648;BME280;17137;51.494;-0.262;2023-05-19T02:07:40;50198.84;;;-145.72;55.09
28648;BME280;17137;51.494;-0.262;2023-05-19T02:08:16;50192.18;;;-145.72;55.01
28648;BME280;17137;51.494;-0.262;2023-05-19T02:08:56;50192.67;;;-145.72;55.13
28648;BME280;17137;51.494;-0.262;2023-05-19T02:09:37;50187.50;;;-145.72;55.27
28648;BME280;17137;51.494;-0.262;2023-05-19T02:10:13;50185.65;;;-145.72;55.30
28648;BME280;17137;51.494;-0.262;2023-05-19T02:10:51;50192.18;;;-145.72;54.99
28648;BME280;17137;51.494;-0.262;2023-05-19T02:11:29;50191.57;;;-145.72;55.06
28648;BME280;17137;51.494;-0.262;2023-05-19T02:12:08;50189.59;;;-145.72;54.90
28648;BME280;17137;51.494;-0.262;2023-05-19T02:12:45;50181.46;;;-145.72;54.73
28648;BME280;17137;51.494;-0.262;2023-05-19T02:13:19;50189.22;;;-145.72;54.54
28648;BME280;17137;51.494;-0.262;2023-05-19T02:13:55;50188.98;;;-145.72;54.72
28648;BME280;17137;51.494;-0.262;2023-05-19T02:14:30;50180.84;;;-145.72;54.72
28648;BME280;17137;51.494;-0.262;2023-05-19T02:15:05;50182.94;;;-145.72;54.90
28648;BME280;17137;51.494;-0.262;2023-05-19T02:15:39;50183.92;;;-145.72;54.75
28648;BME280;17137;51.494;-0.262;2023-05-19T02:16:12;50180.22;;;-145.72;54.65
28648;BME280;17137;51.494;-0.262;2023-05-19T02:16:44;50196.13;;;-145.72;54.87
28648;BME280;17137;51.494;-0.262;2023-05-19T02:17:17;50181.70;;;-145.72;55.08
28648;BME280;17137;51.494;-0.262;2023-05-19T02:17:50;50193.91;;;-145.72;55.35
28648;BME280;17137;51.494;-0.262;2023-05-19T02:18:20;50193.41;;;-145.72;55.55
28648;BME280;17137;51.494;-0.262;2023-05-19T02:18:51;50190.46;;;-145.72;55.67
28648;BME280;17137;51.494;-0.262;2023-05-19T02:19:24;50195.76;;;-145.72;56.12
28648;BME280;17137;51.494;-0.262;2023-05-19T02:19:55;50206.36;;;-145.72;57.27
28648;BME280;17137;51.494;-0.262;2023-05-19T02:20:26;50222.63;;;-145.72;57.33
28648;BME280;17137;51.494;-0.262;2023-05-19T02:20:56;50206.11;;;-145.72;57.70
28648;BME280;17137;51.494;-0.262;2023-05-19T02:21:26;50205.00;;;-145.72;57.61
28648;BME280;17137;51.494;-0.262;2023-05-19T02:21:57;50220.90;;;-145.72;57.63
28648;BME280;17137;51.494;-0.262;2023-05-19T02:22:27;50207.84;;;-145.72;57.54
28648;BME280;17137;51.494;-0.262;2023-05-19T02:22:58;50209.93;;;-145.72;57.74
28648;BME280;17137;51.494;-0.262;2023-05-19T02:23:28;50210.67;;;-145.72;58.19
28648;BME280;17137;51.494;-0.262;2023-05-19T02:23:58;50206.23;;;-145.72;58.10
28648;BME280;17137;51.494;-0.262;2023-05-19T02:24:28;50208.58;;;-145.72;58.34
28648;BME280;17137;51.494;-0.262;2023-05-19T02:24:59;50216.10;;;-145.72;58.47
28648;BME280;17137;51.494;-0.262;2023-05-19T02:25:29;50225.34;;;-145.72;58.92
28648;BME280;17137;51.494;-0.262;2023-05-19T02:25:59;50215.60;;;-145.72;58.95
28648;BME280;17137;51.494;-0.262;2023-05-19T02:26:30;50217.20;;;-145.72;58.93
28648;BME280;17137;51.494;-0.262;2023-05-19T02:27:00;50214.49;;;-145.72;58.64
28648;BME280;17137;51.494;-0.262;2023-05-19T02:27:30;50211.41;;;-145.72;58.68
28648;BME280;17137;51.494;-0.262;2023-05-19T02:28:01;50204.01;;;-145.72;58.36
28648;BME280;17137;51.494;-0.262;2023-05-19T02:28:31;50207.59;;;-145.72;58.21
28648;BME280;17137;51.494;-0.262;2023-05-19T02:29:02;50200.32;;;-145.72;58.28
28648;BME280;17137;51.494;-0.262;2023-05-19T02:29:32;50203.03;;;-145.72;58.37
28648;BME280;17137;51.494;-0.262;2023-05-19T02:30:03;50200.07;;;-145.72;58.31
28648;BME280;17137;51.494;-0.262;2023-05-19T02:30:33;50204.38;;;-145.72;58.27
28648;BME280;17137;51.494;-0.262;2023-05-19T02:31:03;50205.25;;;-145.72;58.32
28648;BME280;17137;51.494;-0.262;2023-05-19T02:31:34;50196.13;;;-145.72;58.29
28648;BME280;17137;51.494;-0.262;2023-05-19T02:32:05;50199.95;;;-145.72;58.17
28648;BME280;17137;51.494;-0.262;2023-05-19T02:32:36;50199.95;;;-145.72;57.88
28648;BME280;17137;51.494;-0.262;2023-05-19T02:33:06;50201.80;;;-145.72;57.85
28648;BME280;17137;51.494;-0.262;2023-05-19T02:33:36;50196.74;;;-145.72;57.98
28648;BME280;17137;51.494;-0.262;2023-05-19T02:34:07;50189.72;;;-145.72;58.41
28648;BME280;17137;51.494;-0.262;2023-05-19T02:34:37;50202.29;;;-145.72;58.49
28648;BME280;17137;51.494;-0.262;2023-05-19T02:35:08;50201.67;;;-145.72;58.45
28648;BME280;17137;51.494;-0.262;2023-05-19T02:35:39;50189.72;;;-145.72;58.53
28648;BME280;17137;51.494;-0.262;2023-05-19T02:36:09;50210.55;;;-145.72;59.14
28648;BME280;17137;51.494;-0.262;2023-05-19T02:36:40;50203.52;;;-145.72;59.07
28648;BME280;17137;51.494;-0.262;2023-05-19T02:37:12;50199.21;;;-145.72;59.02
28648;BME280;17137;51.494;-0.262;2023-05-19T02:37:42;50197.24;;;-145.72;58.99
28648;BME280;17137;51.494;-0.262;2023-05-19T02:38:12;50201.92;;;-145.72;58.97
28648;BME280;17137;51.494;-0.262;2023-05-19T02:38:43;50194.15;;;-145.72;59.09
28648;BME280;17137;51.494;-0.262;2023-05-19T02:39:13;50198.22;;;-145.72;59.42
28648;BME280;17137;51.494;-0.262;2023-05-19T02:39:44;50196.62;;;-145.72;59.55
28648;BME280;17137;51.494;-0.262;2023-05-19T02:40:14;50202.29;;;-145.72;60.10
28648;BME280;17137;51.494;-0.262;2023-05-19T02:40:44;50195.39;;;-145.72;59.90
28648;BME280;17137;51.494;-0.262;2023-05-19T02:41:15;50198.10;;;-145.72;59.58
28648;BME280;17137;51.494;-0.262;2023-05-19T02:41:45;50195.39;;;-145.72;59.75
28648;BME280;17137;51.494;-0.262;2023-05-19T02:42:16;50204.14;;;-145.72;59.88
28648;BME280;17137;51.494;-0.262;2023-05-19T02:42:46;50199.82;;;-145.72;59.75
28648;BME280;17137;51.494;-0.262;2023-05-19T02:43:17;50195.39;;;-145.72;59.63
28648;BME280;17137;51.494;-0.262;2023-05-19T02:43:47;50195.14;;;-145.72;59.61
28648;BME280;17137;51.494;-0.262;2023-05-19T02:44:17;50217.57;;;-145.72;61.68
28648;BME280;17137;51.494;-0.262;2023-05-19T02:44:48;50206.23;;;-145.72;61.79
28648;BME280;17137;51.494;-0.262;2023-05-19T02:45:18;50210.67;;;-145.72;61.95
28648;BME280;17137;51.494;-0.262;2023-05-19T02:45:48;50203.40;;;-145.72;61.57
28648;BME280;17137;51.494;-0.262;2023-05-19T02:46:19;50201.67;;;-145.72;61.28
28648;BME280;17137;51.494;-0.262;2023-05-19T02:46:49;50201.80;;;-145.72;61.18
28648;BME280;17137;51.494;-0.262;2023-05-19T02:47:20;50204.63;;;-145.72;61.08
28648;BME280;17137;51.494;-0.262;2023-05-19T02:47:50;50209.56;;;-145.72;60.68
28648;BME280;17137;51.494;-0.262;2023-05-19T02:48:20;50198.84;;;-145.72;60.76
28648;BME280;17137;51.494;-0.262;2023-05-19T02:48:51;50196.87;;;-145.72;60.54